Time;durP1;ratioP1;P1;durP2;ratioP2;P2;SDS_P1;SDS_P2;PMS_P1;PMS_P2;Temp;Humidity;BMP_temperature;BMP_pressure;BME280_temperature;BME280_humidity;BME280_pressure;Samples;Min_cycle;Max_cycle;Signal;HPM_P1;HPM_P2
2021/09/06 00:00:14;;;;;;;17.60;7.50;;;;;;;7.46;56.32;99994.51;112001;1202;95086;-79
2021/09/06 00:03:01;;;;;;;17.40;7.20;;;;;;;7.42;56.33;99995.23;111978;1203;113799;-76
2021/09/06 00:05:34;;;;;;;17.00;7.20;;;;;;;7.37;56.37;99993.67;111935;1208;95055;-81
2021/09/06 00:08:02;;;;;;;21.30;8.10;;;;;;;7.34;56.57;99997.52;111999;1208;108002;-82
2021/09/06 00:10:32;;;;;;;21.80;8.20;;;;;;;7.34;56.64;99994.02;111967;1208;97693;-80
2021/09/06 00:13:06;;;;;;;19.90;7.40;;;;;;;7.32;56.76;99987.20;111930;1203;95132;-78
2021/09/06 00:15:39;;;;;;;20.20;7.30;;;;;;;7.30;56.96;99986.21;111940;1209;111340;-78
2021/09/06 00:18:11;;;;;;;19.10;8.20;;;;;;;7.29;56.72;99989.09;112006;1207;96856;-78
2021/09/06 00:20:41;;;;;;;20.70;8.30;;;;;;;7.27;56.87;99989.70;111966;1207;107489;-78
2021/09/06 00:23:11;;;;;;;18.30;7.00;;;;;;;7.25;56.90;99986.63;111927;1201;95441;-79
2021/09/06 00:25:43;;;;;;;17.00;6.90;;;;;;;7.21;56.88;99982.55;112065;1202;97598;-77
2021/09/06 00:28:11;;;;;;;19.40;7.60;;;;;;;7.17;56.97;99983.08;111969;1211;111163;-77
2021/09/06 00:30:43;;;;;;;19.10;7.40;;;;;;;7.15;56.93;99983.34;112003;1203;96448;-79
2021/09/06 00:33:14;;;;;;;19.50;8.70;;;;;;;7.13;56.81;99978.30;111932;1208;107303;-78
2021/09/06 00:35:42;;;;;;;20.40;8.90;;;;;;;7.11;57.10;99981.40;111988;1209;95136;-78
2021/09/06 00:38:10;;;;;;;18.60;7.60;;;;;;;7.09;57.18;99980.64;112375;1199;97536;-77
2021/09/06 00:40:41;;;;;;;20.20;8.00;;;;;;;7.07;57.28;99978.40;112678;1199;111103;-76
2021/09/06 00:43:14;;;;;;;20.10;7.40;;;;;;;7.05;57.18;99976.75;111998;1207;97578;-77
2021/09/06 00:45:46;;;;;;;16.90;7.30;;;;;;;7.02;57.26;99978.24;111985;1206;106362;-78
2021/09/06 00:48:18;;;;;;;18.60;7.80;;;;;;;7.00;57.11;99978.73;111990;1199;98367;-77
2021/09/06 00:50:50;;;;;;;18.60;7.60;;;;;;;6.96;57.21;99975.14;112007;1207;97557;-77
2021/09/06 00:53:17;;;;;;;18.90;8.30;;;;;;;6.94;57.17;99976.85;111955;1207;111149;-76
2021/09/06 00:55:45;;;;;;;18.50;7.80;;;;;;;6.93;57.27;99977.60;112019;1199;96902;-76
2021/09/06 00:58:21;;;;;;;18.20;7.40;;;;;;;6.92;57.28;99978.36;113737;1199;108410;-77
2021/09/06 01:00:50;;;;;;;22.00;8.50;;;;;;;6.88;57.48;99976.74;113102;1198;95535;-78
2021/09/06 01:03:18;;;;;;;20.20;8.90;;;;;;;6.85;57.38;99976.33;113710;1198;95400;-78
2021/09/06 01:05:46;;;;;;;24.10;8.70;;;;;;;6.84;57.41;99975.14;112686;1198;111135;-79
2021/09/06 01:08:14;;;;;;;20.10;8.20;;;;;;;6.83;57.52;99978.36;113465;1198;95660;-77
2021/09/06 01:10:42;;;;;;;19.20;7.90;;;;;;;6.82;57.52;99981.05;112080;1198;106884;-77
2021/09/06 01:13:10;;;;;;;19.70;7.10;;;;;;;6.80;57.46;99976.70;112954;1198;97601;-78
2021/09/06 01:15:38;;;;;;;17.60;7.10;;;;;;;6.78;57.46;99981.04;112063;1200;97682;-77
2021/09/06 01:18:10;;;;;;;19.40;7.50;;;;;;;6.76;57.56;99980.05;112010;1207;111174;-78
2021/09/06 01:20:37;;;;;;;21.90;7.90;;;;;;;6.74;57.65;99982.08;112045;1207;98019;-77
2021/09/06 01:23:12;;;;;;;19.80;7.80;;;;;;;6.73;57.58;99979.16;112039;1203;107464;-78
2021/09/06 01:25:40;;;;;;;18.70;7.60;;;;;;;6.70;57.80;99980.67;112014;1199;95211;-79
2021/09/06 01:28:11;;;;;;;18.50;6.90;;;;;;;6.66;57.73;99975.20;112072;1201;97670;-78
2021/09/06 01:30:40;;;;;;;19.40;7.40;;;;;;;6.63;57.70;99974.09;112009;1207;111067;-76
2021/09/06 01:33:08;;;;;;;22.50;8.10;;;;;;;6.61;57.83;99974.19;112036;1207;97582;-76
2021/09/06 01:35:36;;;;;;;17.80;7.30;;;;;;;6.59;57.75;99975.14;112051;1207;107456;-76
2021/09/06 01:38:08;;;;;;;18.60;7.80;;;;;;;6.55;57.86;99968.41;112043;1200;97665;-77
2021/09/06 01:40:37;;;;;;;19.90;7.70;;;;;;;6.49;57.99;99968.52;112015;1208;98118;-77
2021/09/06 01:43:09;;;;;;;20.30;7.50;;;;;;;6.46;57.99;99973.21;112024;1206;109926;-77
2021/09/06 01:45:41;;;;;;;19.60;7.40;;;;;;;6.43;57.99;99972.11;112036;1207;97623;-77
2021/09/06 01:48:09;;;;;;;18.50;7.00;;;;;;;6.34;57.96;99976.86;112062;1198;107200;-77
2021/09/06 01:50:37;;;;;;;19.20;7.50;;;;;;;6.28;58.18;99973.95;112027;1206;97604;-77
2021/09/06 01:53:04;;;;;;;17.20;6.70;;;;;;;6.26;58.25;99972.27;112082;1207;97575;-76
2021/09/06 01:55:33;;;;;;;18.30;7.00;;;;;;;6.23;58.30;99971.12;112068;1207;109335;-79
2021/09/06 01:58:00;;;;;;;16.80;6.70;;;;;;;6.24;58.49;99974.45;112038;1207;97549;-79
2021/09/06 02:00:28;;;;;;;17.40;6.50;;;;;;;6.21;58.42;99976.83;112060;1207;107559;-78
2021/09/06 02:03:00;;;;;;;15.70;6.00;;;;;;;6.21;58.54;99974.75;112032;1203;97596;-79
2021/09/06 02:05:32;;;;;;;17.10;6.60;;;;;;;6.21;58.57;99980.22;112036;1201;97661;-78
2021/09/06 02:08:00;;;;;;;19.00;6.80;;;;;;;6.19;58.51;99979.23;112014;1203;111135;-78
2021/09/06 02:10:28;;;;;;;16.50;6.90;;;;;;;6.15;58.49;99977.96;112028;1208;97700;-77
2021/09/06 02:12:56;;;;;;;15.60;6.20;;;;;;;6.11;58.40;99981.66;111941;1205;107498;-78
2021/09/06 02:15:24;;;;;;;15.80;6.60;;;;;;;6.02;58.44;99978.30;112012;1203;97708;-77
2021/09/06 02:17:52;;;;;;;20.60;7.10;;;;;;;5.96;58.45;99974.10;112013;1198;97664;-77
2021/09/06 02:20:19;;;;;;;20.70;8.10;;;;;;;5.93;58.41;99976.85;112081;1207;111073;-78
2021/09/06 02:22:47;;;;;;;16.40;6.90;;;;;;;5.90;58.46;99974.54;112086;1208;97752;-77
2021/09/06 02:25:15;;;;;;;18.40;6.70;;;;;;;5.86;58.58;99973.80;112060;1206;107462;-77
2021/09/06 02:27:43;;;;;;;16.10;6.60;;;;;;;5.85;58.68;99973.81;112065;1203;97585;-76
2021/09/06 02:30:14;;;;;;;21.20;8.30;;;;;;;5.86;58.86;99973.10;112031;1199;97694;-76
2021/09/06 02:32:46;;;;;;;17.40;6.80;;;;;;;5.85;58.83;99979.98;112017;1207;110739;-76
2021/09/06 02:35:18;;;;;;;19.30;7.30;;;;;;;5.85;58.88;99978.77;112027;1207;95653;-74
2021/09/06 02:37:50;;;;;;;20.00;7.60;;;;;;;5.84;58.72;99979.84;112024;1207;107842;-77
2021/09/06 02:40:22;;;;;;;20.20;7.10;;;;;;;5.83;58.79;99976.88;112031;1207;97655;-78
2021/09/06 02:42:50;;;;;;;18.30;7.30;;;;;;;5.80;58.81;99980.52;112023;1199;98245;-79
2021/09/06 02:45:22;;;;;;;18.00;6.60;;;;;;;5.79;58.91;99980.17;112067;1207;109629;-77
2021/09/06 02:47:53;;;;;;;18.30;7.40;;;;;;;5.78;58.93;99978.83;112034;1206;95839;-79
2021/09/06 02:50:21;;;;;;;18.30;6.90;;;;;;;5.76;58.89;99985.58;112044;1207;107423;-78
2021/09/06 02:52:51;;;;;;;19.20;7.40;;;;;;;5.74;58.98;99987.27;112011;1198;97663;-78
2021/09/06 02:55:23;;;;;;;19.00;7.00;;;;;;;5.72;58.99;99985.77;112034;1208;97655;-78
2021/09/06 02:57:51;;;;;;;21.00;7.70;;;;;;;5.70;58.95;99988.83;112056;1203;111167;-77
2021/09/06 03:00:18;;;;;;;16.10;6.70;;;;;;;5.66;58.97;99988.96;112078;1203;97699;-76
2021/09/06 03:02:57;;;;;;;17.40;6.60;;;;;;;5.64;59.14;99990.63;112065;1206;107545;-79
2021/09/06 03:05:25;;;;;;;14.20;5.60;;;;;;;5.62;59.03;99987.88;112032;1206;97626;-79
2021/09/06 03:07:53;;;;;;;15.10;5.50;;;;;;;5.61;59.16;99991.45;112040;1207;97602;-79
2021/09/06 03:10:20;;;;;;;20.60;8.30;;;;;;;5.59;59.25;99988.85;112040;1208;111162;-77
2021/09/06 03:12:48;;;;;;;16.20;6.10;;;;;;;5.59;59.31;99990.45;112047;1203;95260;-78
2021/09/06 03:15:16;;;;;;;15.60;6.40;;;;;;;5.58;59.24;99985.73;112042;1206;107494;-77
2021/09/06 03:17:44;;;;;;;18.40;7.00;;;;;;;5.57;59.37;99988.25;112083;1198;98128;-79
2021/09/06 03:20:12;;;;;;;16.90;6.70;;;;;;;5.55;59.24;99992.16;112054;1204;95005;-77
2021/09/06 03:22:40;;;;;;;15.20;5.70;;;;;;;5.54;59.39;99994.70;112041;1199;111289;-78
2021/09/06 03:25:11;;;;;;;13.60;5.40;;;;;;;5.50;59.30;99992.20;112042;1207;97621;-79
2021/09/06 03:27:39;;;;;;;13.90;5.60;;;;;;;5.46;59.38;99988.30;112018;1207;107393;-77
2021/09/06 03:30:09;;;;;;;18.80;6.30;;;;;;;5.44;59.49;99986.97;112021;1198;95409;-77
2021/09/06 03:32:37;;;;;;;13.50;5.60;;;;;;;5.41;59.44;99988.14;112037;1203;97632;-77
2021/09/06 03:35:12;;;;;;;20.80;5.70;;;;;;;5.39;59.49;99990.67;112055;1198;110890;-76
2021/09/06 03:37:41;;;;;;;17.80;6.20;;;;;;;5.35;59.57;99991.66;112048;1207;97716;-77
2021/09/06 03:40:11;;;;;;;15.80;5.80;;;;;;;5.34;59.46;99991.70;111994;1208;107529;-76
2021/09/06 03:42:39;;;;;;;16.30;5.70;;;;;;;5.32;59.55;99988.44;111995;1206;97685;-83
2021/09/06 03:45:07;;;;;;;15.10;5.70;;;;;;;5.30;59.62;99996.80;112087;1199;95107;-75
2021/09/06 03:47:40;;;;;;;17.10;5.90;;;;;;;5.25;59.65;100000.30;112031;1207;111150;-76
2021/09/06 03:50:09;;;;;;;15.00;5.50;;;;;;;5.22;59.64;99999.89;112029;1206;95841;-76
2021/09/06 03:52:40;;;;;;;14.10;5.40;;;;;;;5.20;59.73;99999.79;112004;1199;106698;-78
2021/09/06 03:55:08;;;;;;;18.50;6.50;;;;;;;5.20;59.71;99998.73;111998;1200;97761;-75
2021/09/06 03:57:36;;;;;;;14.70;5.90;;;;;;;5.18;59.70;100000.36;112029;1199;97570;-77
2021/09/06 04:00:08;;;;;;;17.20;6.60;;;;;;;5.18;59.88;99998.80;112012;1200;111097;-75
2021/09/06 04:02:36;;;;;;;13.40;5.60;;;;;;;5.17;59.85;99999.00;111937;1208;97593;-78
2021/09/06 04:05:11;;;;;;;15.10;5.80;;;;;;;5.16;59.90;100003.09;112065;1207;107464;-76
2021/09/06 04:07:39;;;;;;;14.40;6.10;;;;;;;5.15;60.00;100002.75;111993;1203;97604;-77
2021/09/06 04:10:07;;;;;;;14.20;5.30;;;;;;;5.15;60.04;100003.98;112081;1206;96499;-77
2021/09/06 04:12:35;;;;;;;17.80;6.00;;;;;;;5.14;60.04;100006.67;112054;1207;111150;-79
2021/09/06 04:15:09;;;;;;;15.90;5.90;;;;;;;5.14;60.06;100005.98;112073;1206;96256;-78
2021/09/06 04:17:41;;;;;;;16.00;5.40;;;;;;;5.13;60.06;100009.00;112028;1207;108420;-72
2021/09/06 04:20:12;;;;;;;13.80;5.80;;;;;;;5.12;60.13;100009.36;112045;1203;97610;-77
2021/09/06 04:22:40;;;;;;;15.10;5.60;;;;;;;5.13;60.12;100009.35;112033;1206;97610;-74
2021/09/06 04:25:11;;;;;;;19.10;5.70;;;;;;;5.13;60.23;100011.61;112087;1203;111176;-77
2021/09/06 04:27:39;;;;;;;16.70;5.90;;;;;;;5.14;60.27;100011.60;112072;1206;97706;-75
2021/09/06 04:30:11;;;;;;;14.70;5.70;;;;;;;5.13;60.28;100015.48;112035;1198;107452;-79
2021/09/06 04:32:39;;;;;;;13.70;5.50;;;;;;;5.14;60.32;100014.76;111988;1206;97598;-79
2021/09/06 04:35:07;;;;;;;15.30;5.50;;;;;;;5.13;60.35;100016.53;112132;1207;97593;-80
2021/09/06 04:37:42;;;;;;;14.20;5.20;;;;;;;5.13;60.40;100015.49;112028;1206;111107;-79
2021/09/06 04:40:12;;;;;;;13.40;5.10;;;;;;;5.14;60.42;100013.70;112152;1206;97689;-79
2021/09/06 04:42:39;;;;;;;19.30;5.70;;;;;;;5.16;60.45;100015.58;112157;1204;107466;-78
2021/09/06 04:45:10;;;;;;;16.70;6.20;;;;;;;5.17;60.50;100016.39;112001;1199;95037;-78
2021/09/06 04:47:38;;;;;;;18.80;6.50;;;;;;;5.20;60.52;100016.31;112072;1206;94947;-77
2021/09/06 04:50:06;;;;;;;15.70;5.60;;;;;;;5.24;60.62;100020.06;112050;1203;110851;-79
2021/09/06 04:52:34;;;;;;;15.50;5.40;;;;;;;5.26;60.77;100021.21;112085;1206;95039;-77
2021/09/06 04:55:06;;;;;;;16.00;6.00;;;;;;;5.28;60.79;100023.41;112084;1207;107403;-80
2021/09/06 04:57:35;;;;;;;15.30;5.40;;;;;;;5.32;60.84;100023.08;112065;1204;97677;-75
2021/09/06 05:00:05;;;;;;;15.90;5.40;;;;;;;5.36;60.78;100025.60;112070;1206;97703;-74
2021/09/06 05:02:33;;;;;;;14.30;5.40;;;;;;;5.38;60.90;100024.48;112036;1206;111182;-77
2021/09/06 05:05:06;;;;;;;16.00;5.50;;;;;;;5.41;61.00;100024.89;112109;1203;97692;-75
2021/09/06 05:07:38;;;;;;;14.20;5.70;;;;;;;5.46;61.15;100024.90;112064;1207;107466;-76
2021/09/06 05:10:07;;;;;;;13.30;5.20;;;;;;;5.48;61.12;100021.98;112022;1206;97596;-76
2021/09/06 05:12:43;;;;;;;15.60;5.50;;;;;;;5.54;61.19;100020.02;112086;1203;98402;-76
2021/09/06 05:15:11;;;;;;;17.00;6.80;;;;;;;5.59;61.35;100024.05;112040;1206;111125;-77
2021/09/06 05:17:39;;;;;;;18.20;6.60;;;;;;;5.64;61.03;100020.55;112076;1206;97657;-78
2021/09/06 05:20:07;;;;;;;24.80;9.90;;;;;;;5.69;60.95;100017.73;112080;1207;107481;-76
2021/09/06 05:22:39;;;;;;;19.60;7.40;;;;;;;5.73;60.86;100021.62;112056;1202;97558;-74
2021/09/06 05:25:08;;;;;;;37.00;16.50;;;;;;;5.78;61.07;100025.66;112067;1203;97677;-76
2021/09/06 05:27:40;;;;;;;21.00;8.50;;;;;;;5.84;60.96;100023.16;112063;1206;111111;-77
2021/09/06 05:30:12;;;;;;;21.60;10.10;;;;;;;5.89;61.13;100024.55;112079;1206;97731;-75
2021/09/06 05:32:44;;;;;;;23.80;10.20;;;;;;;5.94;61.15;100023.98;112030;1207;107450;-77
2021/09/06 05:35:12;;;;;;;26.20;10.80;;;;;;;6.00;61.37;100028.90;112005;1200;98338;-76
2021/09/06 05:37:44;;;;;;;22.60;10.20;;;;;;;6.07;61.61;100025.99;112091;1200;95207;-76
2021/09/06 05:40:12;;;;;;;24.70;10.50;;;;;;;6.14;61.42;100015.52;112047;1206;111124;-75
2021/09/06 05:42:43;;;;;;;33.10;15.10;;;;;;;6.22;61.70;100018.22;112069;1198;97665;-75
2021/09/06 05:45:11;;;;;;;34.40;15.20;;;;;;;6.31;61.69;100016.98;112042;1206;107441;-76
2021/09/06 05:47:43;;;;;;;26.50;10.70;;;;;;;6.38;61.84;100017.20;112051;1205;97668;-76
2021/09/06 05:50:18;;;;;;;24.10;9.80;;;;;;;6.47;61.79;100016.52;112059;1206;95047;-75
2021/09/06 05:52:51;;;;;;;20.20;9.00;;;;;;;6.56;61.99;100019.69;112010;1207;110977;-76
2021/09/06 05:55:19;;;;;;;20.10;7.90;;;;;;;6.64;62.12;100021.30;111998;1206;97688;-76
2021/09/06 05:57:47;;;;;;;20.70;8.70;;;;;;;6.72;62.11;100025.23;112019;1206;107501;-76
2021/09/06 06:00:15;;;;;;;23.20;10.30;;;;;;;6.79;62.20;100022.97;112011;1206;98009;-77
2021/09/06 06:02:46;;;;;;;23.70;10.40;;;;;;;6.89;62.38;100020.63;112056;1200;97813;-76
2021/09/06 06:05:14;;;;;;;20.20;8.50;;;;;;;6.96;62.34;100023.98;112061;1206;111173;-76
2021/09/06 06:07:46;;;;;;;24.10;9.90;;;;;;;7.06;62.62;100024.84;112022;1206;95087;-76
2021/09/06 06:10:14;;;;;;;21.70;9.40;;;;;;;7.13;62.72;100022.57;112046;1206;107576;-76
2021/09/06 06:12:46;;;;;;;21.30;9.00;;;;;;;7.20;63.05;100021.23;112075;1206;97616;-77
2021/09/06 06:15:14;;;;;;;22.50;8.10;;;;;;;7.28;63.12;100022.30;112045;1206;96507;-77
2021/09/06 06:17:43;;;;;;;21.50;8.00;;;;;;;7.37;62.60;100024.73;112024;1204;111177;-77
2021/09/06 06:20:17;;;;;;;21.70;8.00;;;;;;;7.45;63.03;100023.84;111989;1204;97581;-78
2021/09/06 06:22:56;;;;;;;16.20;6.50;;;;;;;7.54;63.00;100021.33;112016;1206;107533;-77
2021/09/06 06:25:23;;;;;;;16.30;6.20;;;;;;;7.66;62.79;100020.65;111886;1206;97651;-77
2021/09/06 06:27:51;;;;;;;16.00;5.90;;;;;;;7.77;62.61;100018.73;111980;1198;97620;-73
2021/09/06 06:30:20;;;;;;;15.30;5.70;;;;;;;7.89;62.80;100023.48;111961;1198;111142;-73
2021/09/06 06:32:52;;;;;;;19.70;6.50;;;;;;;8.00;62.87;100023.30;112081;1199;97587;-74
2021/09/06 06:35:21;;;;;;;18.40;6.50;;;;;;;8.10;63.12;100022.13;111921;1198;107230;-73
2021/09/06 06:37:49;;;;;;;19.00;6.70;;;;;;;8.19;62.90;100026.81;111978;1206;97618;-73
2021/09/06 06:40:16;;;;;;;19.20;7.00;;;;;;;8.28;62.95;100026.44;111957;1203;97594;-74
2021/09/06 06:42:44;;;;;;;16.40;6.50;;;;;;;8.37;63.14;100027.43;111957;1198;111058;-78
2021/09/06 06:45:12;;;;;;;17.90;7.10;;;;;;;8.45;63.16;100031.80;111927;1200;97704;-73
2021/09/06 06:47:40;;;;;;;20.20;7.50;;;;;;;8.53;63.20;100034.45;112001;1206;107364;-74
2021/09/06 06:50:08;;;;;;;21.60;7.60;;;;;;;8.61;63.25;100032.64;112043;1201;97687;-79
2021/09/06 06:52:36;;;;;;;18.80;7.10;;;;;;;8.69;63.14;100038.27;111912;1201;95211;-77
2021/09/06 06:55:08;;;;;;;20.20;7.30;;;;;;;8.78;63.23;100037.49;111951;1199;111114;-77
2021/09/06 06:57:37;;;;;;;19.90;7.50;;;;;;;8.92;63.46;100038.39;111902;1206;97699;-72
2021/09/06 07:00:12;;;;;;;17.80;6.50;;;;;;;9.03;63.38;100043.11;111913;1206;107538;-78
2021/09/06 07:02:43;;;;;;;20.80;8.60;;;;;;;9.14;63.35;100041.34;111903;1200;97562;-77
2021/09/06 07:05:11;;;;;;;22.20;9.10;;;;;;;9.26;63.40;100042.33;112045;1200;97663;-76
2021/09/06 07:07:43;;;;;;;22.20;8.20;;;;;;;9.36;63.25;100045.50;111970;1206;111157;-78
2021/09/06 07:10:20;;;;;;;22.40;7.90;;;;;;;9.47;63.22;100043.90;111918;1206;97567;-75
2021/09/06 07:12:48;;;;;;;22.10;8.10;;;;;;;9.59;63.21;100044.14;111905;1206;107556;-76
2021/09/06 07:15:16;;;;;;;25.00;10.20;;;;;;;9.70;63.13;100044.80;111889;1198;97832;-78
2021/09/06 07:17:44;;;;;;;22.50;8.30;;;;;;;9.82;63.19;100042.74;111952;1197;97600;-77
2021/09/06 07:20:12;;;;;;;23.40;8.10;;;;;;;9.95;63.09;100047.73;111945;1198;111143;-77
2021/09/06 07:22:40;;;;;;;20.90;6.00;;;;;;;10.11;62.99;100053.40;111958;1198;98240;-74
2021/09/06 07:25:11;;;;;;;15.90;5.60;;;;;;;10.56;62.74;100052.35;111905;1206;107449;-77
2021/09/06 07:27:39;;;;;;;13.90;5.10;;;;;;;12.40;60.49;100051.20;111877;1206;97015;-77
2021/09/06 07:30:10;;;;;;;14.80;5.00;;;;;;;14.37;59.36;100045.93;111974;1205;97562;-77
2021/09/06 07:32:38;;;;;;;13.20;4.80;;;;;;;16.31;58.80;100046.15;111907;1206;110612;-73
2021/09/06 07:35:06;;;;;;;11.20;4.70;;;;;;;18.15;58.51;100039.98;111990;1203;97614;-75
2021/09/06 07:37:34;;;;;;;12.20;4.80;;;;;;;19.84;57.90;100038.81;111956;1200;107495;-77
2021/09/06 07:40:05;;;;;;;37.20;23.40;;;;;;;21.37;57.53;100035.08;111977;1206;97632;-77
2021/09/06 07:42:35;;;;;;;25.00;11.40;;;;;;;22.91;57.24;100035.40;111986;1198;97582;-75
2021/09/06 07:45:06;;;;;;;15.50;5.80;;;;;;;24.34;57.09;100035.77;111940;1206;112544;-74
2021/09/06 07:47:39;;;;;;;16.00;5.20;;;;;;;25.67;56.64;100038.27;111937;1206;95434;-74
2021/09/06 07:50:14;;;;;;;14.80;5.10;;;;;;;26.91;56.58;100036.02;111970;1206;106443;-74
2021/09/06 07:52:42;;;;;;;14.30;4.90;;;;;;;27.98;56.32;100041.98;111932;1199;95659;-78
2021/09/06 07:55:13;;;;;;;19.20;4.70;;;;;;;28.79;56.39;100044.70;111979;1199;98366;-75
2021/09/06 07:57:41;;;;;;;13.50;4.60;;;;;;;29.70;55.91;100045.52;111960;1206;112065;-74
2021/09/06 08:00:09;;;;;;;11.80;4.60;;;;;;;30.43;55.49;100046.15;111974;1206;98037;-74
2021/09/06 08:02:50;;;;;;;10.70;4.70;;;;;;;31.15;55.26;100045.92;111963;1203;98870;-74
2021/09/06 08:05:31;;;;;;;13.40;4.90;;;;;;;31.71;54.52;100045.95;111943;1199;97639;-73
2021/09/06 08:08:03;;;;;;;13.60;4.80;;;;;;;32.07;53.98;100045.73;112025;1198;97638;-74
2021/09/06 08:10:31;;;;;;;;;;;;;;;32.43;54.02;100044.45;111992;1201;103491;-74
2021/09/06 08:12:59;;;;;;;9.60;4.50;;;;;;;32.90;53.50;100043.04;111985;1206;98334;-74
2021/09/06 08:15:28;;;;;;;11.60;4.70;;;;;;;33.41;53.21;100046.04;111971;1206;98697;-74
2021/09/06 08:18:00;;;;;;;13.30;4.80;;;;;;;33.85;52.58;100047.39;111953;1199;97500;-74
2021/09/06 08:20:28;;;;;;;12.20;4.40;;;;;;;34.32;52.29;100053.30;111978;1200;97693;-75
2021/09/06 08:23:00;;;;;;;11.70;4.30;;;;;;;34.69;51.66;100045.51;111951;1206;102485;-76
2021/09/06 08:25:29;;;;;;;11.50;4.30;;;;;;;34.99;51.48;100044.73;111957;1206;96564;-75
2021/09/06 08:28:02;;;;;;;16.20;4.40;;;;;;;35.22;50.99;100044.34;111964;1206;98823;-75
2021/09/06 08:30:30;;;;;;;13.50;4.50;;;;;;;35.47;50.72;100046.47;111987;1206;98045;-75
2021/09/06 08:32:59;;;;;;;11.80;4.00;;;;;;;35.85;50.19;100045.63;111960;1203;97642;-74
2021/09/06 08:35:31;;;;;;;10.60;3.80;;;;;;;35.94;49.14;100047.52;111967;1206;102490;-73
2021/09/06 08:37:58;;;;;;;14.90;4.20;;;;;;;35.82;48.53;100048.73;111996;1206;95476;-74
2021/09/06 08:40:27;;;;;;;13.10;3.90;;;;;;;35.75;48.34;100045.10;111974;1206;99589;-73
2021/09/06 08:42:56;;;;;;;10.90;3.60;;;;;;;35.68;47.94;100050.31;111959;1206;97635;-75
2021/09/06 08:45:28;;;;;;;7.80;3.30;;;;;;;35.45;47.16;100047.54;111982;1206;97649;-73
2021/09/06 08:48:00;;;;;;;10.00;4.00;;;;;;;35.37;46.75;100050.39;111958;1199;102550;-75
2021/09/06 08:50:36;;;;;;;9.90;3.40;;;;;;;35.48;46.41;100046.53;111991;1205;98121;-81
2021/09/06 08:53:07;;;;;;;8.40;3.60;;;;;;;35.49;45.95;100046.00;111963;1206;98862;-79
2021/09/06 08:55:41;;;;;;;9.30;3.20;;;;;;;35.33;45.47;100043.20;111953;1200;97681;-78
2021/09/06 08:58:31;;;;;;;7.80;2.70;;;;;;;35.23;44.71;100039.66;111952;1206;97609;-80
2021/09/06 09:01:04;;;;;;;8.70;3.20;;;;;;;35.17;44.46;100042.23;111915;1206;101317;-80
2021/09/06 09:03:32;;;;;;;9.80;3.50;;;;;;;35.22;43.92;100042.09;111944;1206;98173;-79
2021/09/06 09:06:09;;;;;;;7.60;3.40;;;;;;;35.24;43.70;100044.45;111926;1206;98813;-79
2021/09/06 09:08:39;;;;;;;9.80;3.40;;;;;;;34.94;43.14;100045.04;111951;1206;95103;-79
2021/09/06 09:11:09;;;;;;;5.50;2.70;;;;;;;34.79;42.50;100043.83;111933;1205;98316;-80
2021/09/06 09:13:39;;;;;;;6.30;2.90;;;;;;;35.00;42.18;100041.27;111973;1200;102522;-80
2021/09/06 09:16:09;;;;;;;6.90;2.50;;;;;;;35.12;41.93;100038.77;111983;1198;97688;-80
2021/09/06 09:18:38;;;;;;;7.10;2.70;;;;;;;34.70;41.06;100041.23;111933;1200;99797;-79
2021/09/06 09:21:14;;;;;;;5.10;2.60;;;;;;;34.34;40.69;100041.15;111949;1198;97693;-82
2021/09/06 09:23:51;;;;;;;7.30;3.00;;;;;;;33.77;40.21;100035.84;111960;1206;97603;-78
2021/09/06 09:26:19;;;;;;;10.60;4.90;;;;;;;33.04;39.58;100039.12;111927;1200;102682;-82
2021/09/06 09:28:47;;;;;;;8.90;3.20;;;;;;;32.68;39.39;100039.14;111977;1206;98249;-83
2021/09/06 09:31:21;;;;;;;7.10;3.20;;;;;;;32.65;39.09;100035.23;111948;1206;98903;-81
2021/09/06 09:33:56;;;;;;;6.00;3.00;;;;;;;32.94;39.14;100029.90;111939;1200;97600;-80
2021/09/06 09:36:36;;;;;;;7.00;2.80;;;;;;;33.39;39.06;100031.82;111993;1200;97687;-79
2021/09/06 09:39:13;;;;;;;5.30;2.90;;;;;;;33.70;38.29;100027.75;111937;1200;102495;-79
2021/09/06 09:41:49;;;;;;;6.30;2.80;;;;;;;33.73;38.05;100030.77;111937;1199;98116;-80
2021/09/06 09:44:22;;;;;;;4.90;2.80;;;;;;;33.51;36.79;100035.80;111909;1206;98812;-82
2021/09/06 09:46:58;;;;;;;7.10;2.60;;;;;;;32.45;36.41;100033.94;111905;1199;96816;-82
2021/09/06 09:49:33;;;;;;;6.20;2.60;;;;;;;31.38;36.48;100034.91;111921;1200;97707;-83
2021/09/06 09:52:01;;;;;;;7.70;3.00;;;;;;;30.89;37.00;100029.98;111900;1206;103211;-84
2021/09/06 09:54:37;;;;;;;8.60;3.10;;;;;;;30.50;36.80;100026.91;111942;1199;98415;-85
2021/09/06 09:57:05;;;;;;;6.70;3.10;;;;;;;29.91;36.43;100033.60;111916;1206;107485;-80
2021/09/06 09:59:33;;;;;;;7.90;2.90;;;;;;;29.53;36.22;100031.74;111945;1199;98032;-81
2021/09/06 10:02:13;;;;;;;4.80;2.70;;;;;;;29.19;36.36;100037.30;111954;1206;94974;-76
2021/09/06 10:04:52;;;;;;;6.10;2.70;;;;;;;28.79;35.86;100039.02;111941;1206;111174;-80
2021/09/06 10:07:23;;;;;;;8.00;2.90;;;;;;;28.45;35.89;100031.73;112001;1200;95537;-80
2021/09/06 10:09:53;;;;;;;5.40;2.70;;;;;;;28.17;35.81;100032.77;111904;1206;107552;-82
2021/09/06 10:12:29;;;;;;;10.40;2.80;;;;;;;27.80;35.25;100038.31;111980;1199;97758;-81
2021/09/06 10:15:06;;;;;;;7.00;3.00;;;;;;;27.37;35.45;100031.29;111915;1200;96666;-81
2021/09/06 10:17:47;;;;;;;5.00;2.50;;;;;;;27.00;35.26;100023.99;112186;1199;111108;-82
2021/09/06 10:20:24;;;;;;;8.80;2.60;;;;;;;26.63;35.05;100026.46;112285;1201;96875;-82
2021/09/06 10:23:21;;;;;;;9.30;3.20;;;;;;;26.25;34.71;100023.73;112088;1203;107470;-82
2021/09/06 10:25:51;;;;;;;6.40;2.40;;;;;;;25.96;34.82;100019.61;112029;1200;95746;-80
2021/09/06 10:28:30;;;;;;;11.20;3.10;;;;;;;25.76;34.92;100017.13;111926;1199;96594;-81
2021/09/06 10:30:58;;;;;;;7.70;2.90;;;;;;;25.54;34.98;100019.61;111913;1206;110813;-82
2021/09/06 10:33:33;;;;;;;4.90;2.60;;;;;;;25.42;34.75;100017.70;112016;1206;97922;-82
2021/09/06 10:36:21;;;;;;;8.10;2.80;;;;;;;25.32;34.67;100017.56;111933;1206;107581;-83
2021/09/06 10:39:04;;;;;;;7.00;2.60;;;;;;;25.12;34.25;100018.20;111956;1206;97720;-82
2021/09/06 10:41:42;;;;;;;;;;;;;;;24.73;34.04;100015.85;111996;1199;97576;-82
2021/09/06 10:44:10;;;;;;;7.80;2.40;;;;;;;24.41;34.28;100015.27;111971;1206;111107;-82
2021/09/06 10:46:37;;;;;;;6.80;2.60;;;;;;;24.33;34.48;100011.59;111994;1200;97973;-82
2021/09/06 10:49:10;;;;;;;6.30;2.70;;;;;;;24.27;34.51;100010.10;111981;1206;108119;-81
2021/09/06 10:51:38;;;;;;;8.90;2.90;;;;;;;24.18;34.27;100012.91;112061;1199;97658;-84
2021/09/06 10:54:12;;;;;;;7.50;2.70;;;;;;;24.06;34.30;100016.46;112035;1205;96356;-82
2021/09/06 10:56:40;;;;;;;6.80;2.70;;;;;;;24.01;34.50;100018.16;111955;1206;111229;-79
2021/09/06 10:59:11;;;;;;;9.10;2.60;;;;;;;23.99;34.31;100014.89;111915;1205;97599;-85
2021/09/06 11:01:53;;;;;;;7.20;3.00;;;;;;;23.84;34.09;100013.91;112120;1206;107486;-86
2021/09/06 11:04:27;;;;;;;8.50;2.60;;;;;;;23.58;33.89;100008.52;112659;1206;96313;-83
2021/09/06 11:07:11;;;;;;;7.60;2.70;;;;;;;23.40;34.00;100003.98;112511;1199;97589;-81
2021/09/06 11:09:38;;;;;;;6.30;2.90;;;;;;;23.40;34.36;100005.41;112475;1200;111126;-87
2021/09/06 11:12:12;;;;;;;10.10;3.20;;;;;;;23.38;34.16;100001.48;112110;1199;95869;-85
2021/09/06 11:15:08;;;;;;;18.20;7.00;;;;;;;23.20;34.14;100001.83;112046;1206;107386;-86
2021/09/06 11:17:36;;;;;;;9.70;3.50;;;;;;;23.11;34.06;99996.96;112003;1200;97675;-81
2021/09/06 11:20:18;;;;;;;7.60;2.80;;;;;;;23.08;34.17;99999.54;111984;1199;97678;-79
2021/09/06 11:22:47;;;;;;;7.80;2.70;;;;;;;22.91;33.92;99999.17;111916;1209;112612;-81
2021/09/06 11:25:24;;;;;;;7.50;3.00;;;;;;;22.82;33.96;99998.16;111998;1206;95020;-83
2021/09/06 11:28:04;;;;;;;9.40;2.80;;;;;;;22.78;33.98;99995.17;111967;1206;107924;-80
2021/09/06 11:30:37;;;;;;;6.80;2.30;;;;;;;22.80;34.31;99993.05;111902;1206;97653;-83
2021/09/06 11:33:11;;;;;;;10.00;3.30;;;;;;;22.86;34.30;99991.64;111970;1206;97600;-84